Latest Weather Observations for Esperance

IDW60801

Issued at 10:32 pm WST Thursday 11 February 2016 (issued every 30 minutes, with the page automatically refreshed every 10 minutes)

About weather observations | Map of weather stations | Latest weather observations for WA | Other Formats
Station Details ID: 009789 Name: ESPERANCE Lat: -33.83 Lon: 121.89 Height: 25.0 m
Data from the previous 72 hours. | See also: Recent months at Esperance
Date/Time
WST
Temp
°C
App
Temp
°C
Dew
Point
Rel
Hum
%
Delta-T
°C
Wind Press
QNH
hPa
Press
MSL
hPa
Rain
since 9 am
mm
Dir
 
Spd
km/h
Gust
km/h
Spd
kts
Gust
kts
11/10:30pm 20.9 21.2 19.5 92 0.9 WSW 17 22 9 12 1011.8 1011.7 0.0
11/10:00pm 21.1 21.4 19.5 90 1.0 W 17 24 9 13 1012.1 1012.0 0.0
11/09:30pm 21.2 21.6 19.1 88 1.3 WSW 15 20 8 11 1012.4 1012.3 0.0
11/09:00pm 21.6 22.8 19.1 86 1.6 WSW 11 17 6 9 1012.4 1012.3 0.0
11/08:30pm 21.7 23.6 19.0 84 1.7 WSW 7 11 4 6 1011.8 1011.7 0.0
11/08:00pm 21.5 23.4 19.0 86 1.6 SSW 7 9 4 5 1011.6 1011.5 0.0
11/07:30pm 21.8 23.3 19.0 84 1.8 SSW 9 13 5 7 1011.3 1011.2 0.0
11/07:00pm 22.6 24.0 18.6 78 2.5 SW 9 13 5 7 1011.1 1011.0 0.0
11/06:30pm 24.0 24.9 18.3 70 3.6 SSW 11 17 6 9 1010.7 1010.6 0.0
11/06:00pm 26.0 26.6 18.5 63 4.8 SW 13 19 7 10 1010.5 1010.4 0.0
11/05:30pm 29.6 29.2 17.1 47 7.9 WSW 15 19 8 10 1010.4 1010.3 0.0
11/05:00pm 31.5 31.8 17.8 44 8.8 WSW 13 19 7 10 1010.2 1010.1 0.0
11/04:30pm 32.6 31.4 11.7 28 12.3 S 9 15 5 8 1010.0 1009.9 0.0
11/04:00pm 33.6 31.3 10.5 24 13.4 SSW 13 20 7 11 1010.0 1009.9 0.0
11/03:30pm 33.9 31.6 11.8 26 13.1 S 15 20 8 11 1010.1 1010.0 0.0
11/03:00pm 32.8 31.1 12.5 29 12.1 S 13 17 7 9 1010.3 1010.2 0.0
11/02:30pm 33.2 30.8 11.4 26 12.8 S 15 22 8 12 1010.5 1010.4 0.0
11/02:00pm 35.0 32.7 11.8 24 13.8 S 15 20 8 11 1010.7 1010.6 0.0
11/01:30pm 34.9 33.7 13.9 28 12.9 SSE 13 17 7 9 1010.9 1010.8 0.0
11/01:00pm 34.4 31.7 12.8 27 13.0 SSE 19 30 10 16 1010.7 1010.6 0.0
11/12:51pm 37.3 34.6 11.8 21 15.3 NW 17 41 9 22 1010.8 1010.7 0.0
11/12:30pm 42.8 36.9 1.4 8 21.9 NW 22 35 12 19 1010.9 1010.8 0.0
11/12:00pm 41.6 34.5 1.1 8 21.2 NW 28 39 15 21 1011.3 1011.2 0.0
11/11:30am 41.0 34.9 2.9 9 20.4 NNW 24 32 13 17 1011.7 1011.6 0.0
11/11:00am 39.7 32.3 -0.5 8 20.3 NNW 28 39 15 21 1012.2 1012.1 0.0
11/10:30am 38.0 32.6 2.5 11 18.6 N 20 32 11 17 1012.8 1012.7 0.0
11/10:00am 35.8 30.8 4.5 14 16.7 N 20 32 11 17 1013.4 1013.3 0.0
11/09:30am 33.1 29.0 8.5 22 13.8 N 20 28 11 15 1013.7 1013.7 0.0
11/09:00am 30.2 26.9 10.9 30 11.1 N 19 28 10 15 1014.2 1014.2 0.0
11/08:30am 25.6 23.9 13.7 47 7.0 NNE 15 20 8 11 1014.6 1014.6 0.0
11/08:00am 23.0 21.9 14.3 58 5.1 NE 13 19 7 10 1015.0 1015.0 0.0
11/07:30am 20.9 20.1 15.0 69 3.5 NE 13 19 7 10 1015.6 1015.5 0.0
11/07:00am 19.2 18.8 15.1 77 2.4 NE 11 17 6 9 1015.7 1015.6 0.0
11/06:30am 17.9 17.5 15.2 84 1.6 E 11 17 6 9 1015.7 1015.6 0.0
11/06:00am 17.0 16.2 15.1 88 1.1 E 13 19 7 10 1015.6 1015.5 0.0
11/05:30am 16.4 16.0 15.2 93 0.7 ESE 11 15 6 8 1015.3 1015.3 0.0
11/05:00am 16.6 16.3 15.4 93 0.7 ESE 11 17 6 9 1015.2 1015.2 0.0
11/04:30am 16.9 16.3 15.7 93 0.7 ESE 13 17 7 9 1015.0 1015.0 0.0
11/04:00am 17.2 16.7 16.0 93 0.7 ESE 13 20 7 11 1015.0 1015.0 0.0
11/03:30am 17.6 17.2 16.1 91 0.9 ESE 13 17 7 9 1015.0 1015.0 0.0
11/03:00am 17.8 16.9 15.9 89 1.1 ESE 15 19 8 10 1014.9 1014.9 0.0
11/02:30am 17.6 17.4 15.6 88 1.2 ESE 11 15 6 8 1014.9 1014.9 0.0
11/02:00am 18.4 17.5 15.9 85 1.5 ESE 15 22 8 12 1014.8 1014.8 0.0
11/01:30am 18.7 17.9 16.2 85 1.5 ESE 15 22 8 12 1014.9 1014.9 0.0
11/01:00am 19.1 18.5 16.6 85 1.5 ESE 15 22 8 12 1015.2 1015.2 0.0
11/12:30am 19.5 18.4 17.2 86 1.4 ESE 19 24 10 13 1015.7 1015.6 0.0
11/12:00am 19.8 18.6 17.0 84 1.7 SE 19 24 10 13 1015.9 1015.8 0.0
 
Date/Time
WST
Temp
°C
App
Temp
°C
Dew
Point
Rel
Hum
%
Delta-T
°C
Wind Press
QNH
hPa
Press
MSL
hPa
Rain
since 9 am
mm
Dir
 
Spd
km/h
Gust
km/h
Spd
kts
Gust
kts
10/11:30pm 20.0 18.8 17.0 83 1.8 ESE 19 26 10 14 1015.9 1015.8 0.0
10/11:00pm 20.2 19.9 17.3 83 1.8 SE 15 20 8 11 1016.2 1016.1 0.0
10/10:30pm 20.5 20.5 17.2 81 2.0 SE 13 17 7 9 1016.4 1016.3 0.0
10/10:00pm 20.6 20.4 17.5 82 1.9 SE 15 20 8 11 1016.1 1016.0 0.0
10/09:30pm 21.0 21.0 17.2 79 2.3 SE 13 17 7 9 1016.2 1016.1 0.0
10/09:00pm 21.1 21.7 17.7 81 2.1 SSE 11 15 6 8 1016.3 1016.2 0.0
10/08:30pm 21.4 21.7 17.0 76 2.7 ESE 11 15 6 8 1015.6 1015.5 0.0
10/08:00pm 21.4 21.1 17.3 77 2.5 ESE 15 20 8 11 1015.1 1015.1 0.0
10/07:30pm 21.4 21.3 17.8 80 2.2 ESE 15 22 8 12 1015.1 1015.1 0.0
10/07:00pm 21.7 20.6 17.8 78 2.4 ESE 20 28 11 15 1014.9 1014.9 0.0
10/06:30pm 22.3 20.4 17.6 75 2.9 ESE 24 35 13 19 1015.0 1015.0 0.0
10/06:00pm 22.9 21.1 17.8 73 3.2 ESE 24 35 13 19 1014.8 1014.8 0.0
10/05:30pm 23.4 21.0 17.4 69 3.7 ESE 26 33 14 18 1014.9 1014.9 0.0
10/05:00pm 24.2 22.3 17.6 66 4.1 SE 24 35 13 19 1014.7 1014.7 0.0
10/04:30pm 24.9 22.9 17.5 63 4.6 SE 24 33 13 18 1014.8 1014.8 0.0
10/04:00pm 25.3 23.1 17.8 63 4.7 SE 26 33 14 18 1014.8 1014.8 0.0
10/03:30pm 26.4 23.5 17.1 56 5.8 SE 28 37 15 20 1014.8 1014.8 0.0
10/03:00pm 25.9 23.8 17.1 58 5.5 SSE 24 33 13 18 1015.0 1015.0 0.0
10/02:30pm 25.8 23.0 15.4 52 6.3 SSE 24 35 13 19 1015.3 1015.3 0.0
10/02:00pm 25.3 22.1 15.2 53 6.1 SSE 26 33 14 18 1015.5 1015.4 0.0
10/01:30pm 25.3 23.6 16.3 57 5.5 SSE 20 28 11 15 1015.7 1015.6 0.0
10/01:00pm 27.5 25.7 15.5 48 7.3 S 19 22 10 12 1016.0 1015.9 0.0
10/12:30pm 26.6 25.1 15.4 50 6.8 S 17 24 9 13 1016.2 1016.1 0.0
10/12:00pm 27.8 26.7 15.3 46 7.6 S 15 22 8 12 1016.5 1016.4 0.0
10/11:30am 28.1 27.1 14.5 43 8.2 SSE 13 20 7 11 1016.8 1016.7 0.0
10/11:00am 28.6 26.8 12.1 36 9.6 SSE 13 17 7 9 1017.0 1016.9 0.0
10/10:30am 27.8 25.7 11.1 35 9.5 SE 13 17 7 9 1017.3 1017.2 0.0
10/10:00am 27.4 25.4 11.5 37 9.1 SSE 13 19 7 10 1017.6 1017.5 0.0
10/09:30am 27.2 26.4 14.1 44 7.8 SE 11 15 6 8 1017.5 1017.4 0.0
10/09:00am 26.4 27.3 16.1 53 6.3 SSE 6 9 3 5 1017.6 1017.5 0.0
10/08:30am 24.7 26.7 16.9 62 4.8 WNW 2 7 1 4 1017.6 1017.5 0.0
10/08:00am 22.7 24.5 17.5 72 3.2 NNW 4 6 2 3 1017.7 1017.6 0.0
10/07:30am 21.2 22.6 17.3 78 2.4 NW 6 7 3 4 1017.7 1017.6 0.0
10/07:00am 20.0 20.8 16.3 79 2.2 NW 7 9 4 5 1017.5 1017.4 0.0
10/06:30am 18.8 19.3 15.6 82 1.9 WNW 7 11 4 6 1017.4 1017.3 0.0
10/06:00am 17.3 16.3 13.4 78 2.2 WNW 11 11 6 6 1017.3 1017.2 0.0
10/05:30am 17.7 17.3 12.9 73 2.7 W 7 11 4 6 1017.0 1016.9 0.0
10/05:00am 17.4 16.7 13.1 76 2.4 WNW 9 11 5 6 1016.5 1016.4 0.0
10/04:30am 17.3 16.6 13.2 77 2.3 WSW 9 9 5 5 1016.2 1016.1 0.0
10/04:00am 18.5 17.8 13.2 71 3.0 SW 9 13 5 7 1016.1 1016.0 0.0
10/03:30am 19.2 18.6 13.6 70 3.2 W 9 13 5 7 1015.7 1015.6 0.0
10/03:00am 19.4 19.3 13.4 68 3.4 WNW 6 7 3 4 1015.3 1015.3 0.0
10/02:30am 20.1 21.5 15.4 74 2.8 W 2 7 1 4 1015.1 1015.1 0.0
10/02:00am 20.6 21.1 15.0 70 3.3 S 6 7 3 4 1015.1 1015.1 0.0
10/01:30am 20.5 19.6 13.7 65 3.9 SSW 11 13 6 7 1015.1 1015.1 0.0
10/01:00am 21.0 19.8 12.7 59 4.7 S 11 13 6 7 1015.0 1015.0 0.0
10/12:30am 22.5 22.0 12.7 54 5.6 NE 7 9 4 5 1014.7 1014.7 0.0
10/12:00am 23.0 22.2 12.9 53 5.8 NNE 9 11 5 6 1014.8 1014.8 0.0
 
Date/Time
WST
Temp
°C
App
Temp
°C
Dew
Point
Rel
Hum
%
Delta-T
°C
Wind Press
QNH
hPa
Press
MSL
hPa
Rain
since 9 am
mm
Dir
 
Spd
km/h
Gust
km/h
Spd
kts
Gust
kts
09/11:30pm 22.4 21.3 13.0 55 5.4 N 11 15 6 8 1015.0 1015.0 0.0
09/11:00pm 22.3 21.6 13.1 56 5.3 N 9 11 5 6 1015.0 1015.0 0.0
09/10:30pm 23.7 21.7 12.7 50 6.3 NNE 15 20 8 11 1015.2 1015.2 0.0
09/10:00pm 23.5 22.1 12.3 49 6.4 NNE 11 15 6 8 1015.7 1015.6 0.0
09/09:30pm 24.6 23.0 11.5 44 7.4 NE 11 15 6 8 1015.8 1015.7 0.0
09/09:00pm 24.5 22.8 11.1 43 7.5 NE 11 19 6 10 1015.9 1015.8 0.0
09/08:30pm 24.1 23.1 12.2 47 6.8 NE 9 13 5 7 1015.8 1015.7 0.0
09/08:00pm 24.4 23.2 12.8 48 6.7 E 11 17 6 9 1015.8 1015.7 0.0
09/07:30pm 24.2 23.1 14.4 54 5.8 ESE 13 20 7 11 1015.7 1015.6 0.0
09/07:00pm 25.3 23.9 13.5 48 6.9 E 13 19 7 10 1015.7 1015.6 0.0
09/06:30pm 26.0 23.7 14.0 47 7.1 ESE 19 26 10 14 1015.3 1015.3 0.0
09/06:00pm 27.0 25.5 15.3 48 7.1 ESE 17 24 9 13 1015.2 1015.2 0.0
09/05:30pm 27.7 25.5 15.0 45 7.7 SE 20 28 11 15 1015.1 1015.1 0.0
09/05:00pm 28.2 25.9 14.6 43 8.2 SE 20 28 11 15 1014.8 1014.8 0.0
09/04:30pm 29.2 24.7 11.5 33 10.2 SE 26 33 14 18 1014.7 1014.7 0.0
09/04:00pm 28.7 24.7 13.1 38 9.2 SE 26 35 14 19 1014.7 1014.7 0.0
09/03:30pm 28.1 24.7 13.8 41 8.5 SSE 24 30 13 16 1014.7 1014.7 0.0
09/03:00pm 28.9 25.6 14.1 40 8.9 SSE 24 30 13 16 1014.8 1014.8 0.0
09/02:30pm 30.4 27.2 13.1 34 10.3 SSE 22 28 12 15 1014.7 1014.7 0.0
09/02:00pm 31.7 28.9 12.7 31 11.3 SSE 19 22 10 12 1014.9 1014.9 0.0
09/01:30pm 32.5 29.9 12.0 28 12.1 SE 17 20 9 11 1015.1 1015.1 0.0
09/01:00pm 31.1 29.2 13.0 33 10.8 SE 15 20 8 11 1015.5 1015.4 0.0
09/12:30pm 30.6 28.7 14.3 37 9.9 SE 17 22 9 12 1015.7 1015.6 0.0
09/12:00pm 30.0 28.1 14.3 38 9.5 SE 17 20 9 11 1016.1 1016.0 0.0
09/11:30am 30.9 29.4 13.1 33 10.6 SE 13 19 7 10 1016.5 1016.4 0.0
09/11:00am 30.6 29.4 14.0 36 10.0 SSE 13 19 7 10 1016.9 1016.8 0.0
09/10:30am 32.6 31.3 11.4 27 12.4 N 9 15 5 8 1017.3 1017.2 0.0
09/10:00am 30.1 28.5 11.7 32 10.7 NNE 11 17 6 9 1017.8 1017.7 0.0
09/09:30am 28.2 25.6 11.9 36 9.4 N 17 22 9 12 1018.1 1018.0 0.0
09/09:00am 26.2 23.8 12.8 43 7.8 N 17 22 9 12 1018.3 1018.2 0.0
09/08:30am 24.5 21.7 13.3 49 6.5 N 20 26 11 14 1018.5 1018.4 0.0
09/08:00am 22.3 20.8 14.1 59 4.8 NNE 15 20 8 11 1018.8 1018.7 0.0
09/07:30am 20.3 17.7 13.7 66 3.8 N 20 28 11 15 1018.9 1018.8 0.0
09/07:00am 18.8 16.1 13.5 71 3.0 N 20 30 11 16 1019.0 1018.9 0.0
09/06:30am 18.1 15.6 13.5 74 2.6 N 19 26 10 14 1018.9 1018.8 0.0
09/06:00am 17.3 15.2 13.6 79 2.1 NNE 17 30 9 16 1018.8 1018.7 0.0
09/05:30am 16.7 14.6 13.5 81 1.8 NNE 17 24 9 13 1018.7 1018.6 0.0
09/05:00am 16.9 14.2 13.5 80 1.9 NNE 20 30 11 16 1018.3 1018.2 0.0
09/04:30am 17.2 14.7 13.5 79 2.1 NNE 19 24 10 13 1018.3 1018.2 0.0
09/04:00am 17.1 15.4 13.6 80 2.0 NNE 15 24 8 13 1018.3 1018.2 0.0
09/03:30am 17.1 14.9 13.4 79 2.1 NNE 17 24 9 13 1018.6 1018.5 0.0
09/03:00am 17.2 14.6 13.3 78 2.2 NNE 19 22 10 12 1018.6 1018.5 0.0
09/02:30am 17.1 14.9 13.4 79 2.1 NNE 17 24 9 13 1018.8 1018.7 0.0
09/02:00am 16.9 15.9 13.3 79 2.0 NE 11 15 6 8 1019.1 1019.0 0.0
09/01:30am 17.1 15.7 13.4 79 2.1 NE 13 19 7 10 1019.1 1019.0 0.0
09/01:00am 17.5 15.7 13.2 76 2.4 NE 15 20 8 11 1019.4 1019.3 0.0
09/12:30am 17.8 16.3 13.2 74 2.6 NE 13 19 7 10 1019.7 1019.6 0.0
09/12:00am 18.1 16.3 13.3 73 2.7 NE 15 22 8 12 1019.9 1019.8 0.0
 
Date/Time
WST
Temp
°C
App
Temp
°C
Dew
Point
Rel
Hum
%
Delta-T
°C
Wind Press
QNH
hPa
Press
MSL
hPa
Rain
since 9 am
mm
Dir
 
Spd
km/h
Gust
km/h
Spd
kts
Gust
kts
08/11:30pm 18.4 17.0 13.3 72 2.9 ENE 13 22 7 12 1020.1 1020.0 0.0
08/11:00pm 18.8 17.3 13.1 69 3.2 ENE 13 20 7 11 1020.2 1020.1 0.0

Other Formats:

Comma delimited format used in spreadsheet applications
http://www.bom.gov.au/fwo/IDW60801/IDW60801.94638.axf

JavaScript Object Notation format (JSON) in row-major order
http://www.bom.gov.au/fwo/IDW60801/IDW60801.94638.json